sensor_id;sensor_type;location;lat;lon;timestamp;pressure;altitude;pressure_sealevel;temperature;humidity
34065;BME280;20339;49.754;20.158;2023-01-23T00:01:31;97943.19;;;-1.01;100.00
34065;BME280;20339;49.754;20.158;2023-01-23T00:04:05;97945.65;;;-1.00;100.00
34065;BME280;20339;49.754;20.158;2023-01-23T00:06:36;97946.92;;;-0.98;100.00
34065;BME280;20339;49.754;20.158;2023-01-23T00:09:09;97950.09;;;-1.01;100.00
34065;BME280;20339;49.754;20.158;2023-01-23T00:11:41;97952.63;;;-1.05;100.00
34065;BME280;20339;49.754;20.158;2023-01-23T00:14:11;97956.81;;;-1.08;100.00
34065;BME280;20339;49.754;20.158;2023-01-23T00:16:42;97959.27;;;-1.07;100.00
34065;BME280;20339;49.754;20.158;2023-01-23T00:19:14;97964.89;;;-1.06;100.00
34065;BME280;20339;49.754;20.158;2023-01-23T00:21:44;97965.63;;;-1.08;100.00
34065;BME280;20339;49.754;20.158;2023-01-23T00:24:15;97970.27;;;-1.15;100.00
34065;BME280;20339;49.754;20.158;2023-01-23T00:26:46;97967.85;;;-1.23;100.00
34065;BME280;20339;49.754;20.158;2023-01-23T00:29:17;97975.66;;;-1.28;100.00
34065;BME280;20339;49.754;20.158;2023-01-23T00:31:49;97972.98;;;-1.30;100.00
34065;BME280;20339;49.754;20.158;2023-01-23T00:34:20;97973.21;;;-1.31;100.00
34065;BME280;20339;49.754;20.158;2023-01-23T00:36:51;97976.48;;;-1.29;100.00
34065;BME280;20339;49.754;20.158;2023-01-23T00:39:22;97976.80;;;-1.26;100.00
34065;BME280;20339;49.754;20.158;2023-01-23T00:41:53;97986.27;;;-1.20;100.00
34065;BME280;20339;49.754;20.158;2023-01-23T00:44:24;97989.52;;;-1.15;100.00
34065;BME280;20339;49.754;20.158;2023-01-23T00:46:55;97987.98;;;-1.14;100.00
34065;BME280;20339;49.754;20.158;2023-01-23T00:49:26;97990.14;;;-1.14;100.00
34065;BME280;20339;49.754;20.158;2023-01-23T00:51:58;97991.81;;;-1.12;100.00
34065;BME280;20339;49.754;20.158;2023-01-23T00:54:29;97996.67;;;-1.09;100.00
34065;BME280;20339;49.754;20.158;2023-01-23T00:57:00;97997.11;;;-1.08;100.00
34065;BME280;20339;49.754;20.158;2023-01-23T00:59:31;98001.64;;;-1.09;100.00
34065;BME280;20339;49.754;20.158;2023-01-23T01:02:02;98000.09;;;-1.12;100.00
34065;BME280;20339;49.754;20.158;2023-01-23T01:04:33;98002.60;;;-1.12;100.00
34065;BME280;20339;49.754;20.158;2023-01-23T01:07:05;98008.69;;;-1.11;100.00
34065;BME280;20339;49.754;20.158;2023-01-23T01:09:36;98008.70;;;-1.10;100.00
34065;BME280;20339;49.754;20.158;2023-01-23T01:12:08;98012.66;;;-1.10;100.00
34065;BME280;20339;49.754;20.158;2023-01-23T01:14:38;98012.16;;;-1.13;100.00
34065;BME280;20339;49.754;20.158;2023-01-23T01:17:09;98012.13;;;-1.16;100.00
34065;BME280;20339;49.754;20.158;2023-01-23T01:19:40;98011.61;;;-1.17;100.00
34065;BME280;20339;49.754;20.158;2023-01-23T01:22:11;98009.37;;;-1.16;100.00
34065;BME280;20339;49.754;20.158;2023-01-23T01:24:43;98007.39;;;-1.12;100.00
34065;BME280;20339;49.754;20.158;2023-01-23T01:27:14;98003.17;;;-1.12;100.00
34065;BME280;20339;49.754;20.158;2023-01-23T01:29:45;98005.66;;;-1.15;100.00
34065;BME280;20339;49.754;20.158;2023-01-23T01:32:16;98008.02;;;-1.23;100.00
34065;BME280;20339;49.754;20.158;2023-01-23T01:34:46;98006.30;;;-1.28;100.00
34065;BME280;20339;49.754;20.158;2023-01-23T01:37:17;98009.54;;;-1.33;100.00
34065;BME280;20339;49.754;20.158;2023-01-23T01:39:54;98007.10;;;-1.37;100.00
34065;BME280;20339;49.754;20.158;2023-01-23T01:42:25;98005.40;;;-1.41;100.00
34065;BME280;20339;49.754;20.158;2023-01-23T01:44:59;98006.71;;;-1.44;100.00
34065;BME280;20339;49.754;20.158;2023-01-23T01:47:30;98006.68;;;-1.45;100.00
34065;BME280;20339;49.754;20.158;2023-01-23T01:50:05;98005.67;;;-1.44;100.00
34065;BME280;20339;49.754;20.158;2023-01-23T01:52:36;98005.63;;;-1.42;100.00
34065;BME280;20339;49.754;20.158;2023-01-23T01:55:08;98005.65;;;-1.42;100.00
34065;BME280;20339;49.754;20.158;2023-01-23T01:57:42;98009.52;;;-1.47;100.00
34065;BME280;20339;49.754;20.158;2023-01-23T02:00:18;98007.29;;;-1.51;100.00
34065;BME280;20339;49.754;20.158;2023-01-23T02:02:52;98006.39;;;-1.52;100.00
34065;BME280;20339;49.754;20.158;2023-01-23T02:05:26;98009.64;;;-1.52;100.00
34065;BME280;20339;49.754;20.158;2023-01-23T02:08:04;98011.00;;;-1.51;100.00
34065;BME280;20339;49.754;20.158;2023-01-23T02:10:38;98009.70;;;-1.51;100.00
34065;BME280;20339;49.754;20.158;2023-01-23T02:13:24;98010.70;;;-1.52;100.00
34065;BME280;20339;49.754;20.158;2023-01-23T02:16:02;98009.64;;;-1.52;100.00
34065;BME280;20339;49.754;20.158;2023-01-23T02:18:36;98007.29;;;-1.49;100.00
34065;BME280;20339;49.754;20.158;2023-01-23T02:21:10;98006.45;;;-1.45;100.00
34065;BME280;20339;49.754;20.158;2023-01-23T02:23:53;98010.80;;;-1.43;100.00
34065;BME280;20339;49.754;20.158;2023-01-23T02:26:28;98015.81;;;-1.40;100.00
34065;BME280;20339;49.754;20.158;2023-01-23T02:29:03;98020.77;;;-1.36;100.00
34065;BME280;20339;49.754;20.158;2023-01-23T02:31:34;98022.64;;;-1.33;100.00
34065;BME280;20339;49.754;20.158;2023-01-23T02:34:05;98025.27;;;-1.31;100.00
34065;BME280;20339;49.754;20.158;2023-01-23T02:36:36;98026.63;;;-1.31;100.00
34065;BME280;20339;49.754;20.158;2023-01-23T02:39:08;98024.29;;;-1.30;100.00
34065;BME280;20339;49.754;20.158;2023-01-23T02:41:42;98026.92;;;-1.31;100.00
34065;BME280;20339;49.754;20.158;2023-01-23T02:44:18;98030.45;;;-1.33;100.00
34065;BME280;20339;49.754;20.158;2023-01-23T02:46:55;98035.02;;;-1.39;100.00
34065;BME280;20339;49.754;20.158;2023-01-23T02:49:27;98036.03;;;-1.44;100.00
34065;BME280;20339;49.754;20.158;2023-01-23T02:51:58;98044.04;;;-1.47;100.00
34065;BME280;20339;49.754;20.158;2023-01-23T02:54:29;98042.33;;;-1.47;100.00
34065;BME280;20339;49.754;20.158;2023-01-23T02:57:00;98041.35;;;-1.48;100.00
34065;BME280;20339;49.754;20.158;2023-01-23T02:59:31;98034.41;;;-1.46;100.00
34065;BME280;20339;49.754;20.158;2023-01-23T03:02:20;98034.92;;;-1.43;100.00
34065;BME280;20339;49.754;20.158;2023-01-23T03:04:51;98036.36;;;-1.44;100.00
34065;BME280;20339;49.754;20.158;2023-01-23T03:07:22;98037.93;;;-1.45;100.00
34065;BME280;20339;49.754;20.158;2023-01-23T03:09:53;98037.29;;;-1.47;100.00
34065;BME280;20339;49.754;20.158;2023-01-23T03:12:23;98038.98;;;-1.50;100.00
34065;BME280;20339;49.754;20.158;2023-01-23T03:14:54;98046.02;;;-1.53;100.00
34065;BME280;20339;49.754;20.158;2023-01-23T03:17:27;98048.59;;;-1.54;100.00
34065;BME280;20339;49.754;20.158;2023-01-23T03:19:58;98050.13;;;-1.54;100.00
34065;BME280;20339;49.754;20.158;2023-01-23T03:22:30;98053.04;;;-1.55;100.00
34065;BME280;20339;49.754;20.158;2023-01-23T03:25:00;98060.83;;;-1.57;100.00
34065;BME280;20339;49.754;20.158;2023-01-23T03:27:31;98065.32;;;-1.57;100.00
34065;BME280;20339;49.754;20.158;2023-01-23T03:30:04;98065.33;;;-1.58;100.00
34065;BME280;20339;49.754;20.158;2023-01-23T03:32:45;98067.34;;;-1.57;100.00
34065;BME280;20339;49.754;20.158;2023-01-23T03:35:18;98072.27;;;-1.57;100.00
34065;BME280;20339;49.754;20.158;2023-01-23T03:37:49;98071.79;;;-1.57;100.00
34065;BME280;20339;49.754;20.158;2023-01-23T03:40:22;98075.08;;;-1.59;100.00
34065;BME280;20339;49.754;20.158;2023-01-23T03:43:11;98072.66;;;-1.59;100.00
34065;BME280;20339;49.754;20.158;2023-01-23T03:45:42;98071.53;;;-1.58;100.00
34065;BME280;20339;49.754;20.158;2023-01-23T03:48:13;98072.17;;;-1.56;100.00
34065;BME280;20339;49.754;20.158;2023-01-23T03:50:44;98076.55;;;-1.55;100.00
34065;BME280;20339;49.754;20.158;2023-01-23T03:53:15;98076.64;;;-1.52;100.00
34065;BME280;20339;49.754;20.158;2023-01-23T03:55:47;98077.79;;;-1.48;100.00
34065;BME280;20339;49.754;20.158;2023-01-23T03:58:18;98076.64;;;-1.44;100.00
34065;BME280;20339;49.754;20.158;2023-01-23T04:00:49;98075.27;;;-1.40;100.00
34065;BME280;20339;49.754;20.158;2023-01-23T04:03:20;98074.39;;;-1.36;100.00
34065;BME280;20339;49.754;20.158;2023-01-23T04:05:55;98076.88;;;-1.32;100.00
34065;BME280;20339;49.754;20.158;2023-01-23T04:08:27;98087.04;;;-1.30;100.00
34065;BME280;20339;49.754;20.158;2023-01-23T04:11:06;98095.30;;;-1.31;100.00
34065;BME280;20339;49.754;20.158;2023-01-23T04:13:37;98100.64;;;-1.32;100.00
34065;BME280;20339;49.754;20.158;2023-01-23T04:16:09;98105.33;;;-1.32;100.00
34065;BME280;20339;49.754;20.158;2023-01-23T04:18:39;98102.13;;;-1.29;100.00
34065;BME280;20339;49.754;20.158;2023-01-23T04:21:10;98102.30;;;-1.25;100.00
34065;BME280;20339;49.754;20.158;2023-01-23T04:23:41;98096.54;;;-1.23;100.00
34065;BME280;20339;49.754;20.158;2023-01-23T04:26:13;98092.40;;;-1.22;100.00
34065;BME280;20339;49.754;20.158;2023-01-23T04:28:44;98091.19;;;-1.18;100.00
34065;BME280;20339;49.754;20.158;2023-01-23T04:31:15;98095.56;;;-1.16;100.00
34065;BME280;20339;49.754;20.158;2023-01-23T04:33:46;98092.14;;;-1.14;100.00
34065;BME280;20339;49.754;20.158;2023-01-23T04:36:17;98089.77;;;-1.12;100.00
34065;BME280;20339;49.754;20.158;2023-01-23T04:38:48;98087.76;;;-1.11;100.00
34065;BME280;20339;49.754;20.158;2023-01-23T04:41:21;98086.61;;;-1.08;100.00
34065;BME280;20339;49.754;20.158;2023-01-23T04:43:55;98090.79;;;-1.05;100.00
34065;BME280;20339;49.754;20.158;2023-01-23T04:46:46;98098.65;;;-1.04;100.00
34065;BME280;20339;49.754;20.158;2023-01-23T04:49:19;98104.79;;;-1.02;100.00
34065;BME280;20339;49.754;20.158;2023-01-23T04:51:50;98098.89;;;-0.99;100.00
34065;BME280;20339;49.754;20.158;2023-01-23T04:54:21;98100.59;;;-0.97;100.00
34065;BME280;20339;49.754;20.158;2023-01-23T04:56:54;98108.75;;;-0.95;100.00
34065;BME280;20339;49.754;20.158;2023-01-23T04:59:25;98104.61;;;-0.96;100.00
34065;BME280;20339;49.754;20.158;2023-01-23T05:01:56;98104.02;;;-0.93;100.00
34065;BME280;20339;49.754;20.158;2023-01-23T05:04:27;98104.86;;;-0.91;100.00
34065;BME280;20339;49.754;20.158;2023-01-23T05:06:58;98105.92;;;-0.90;100.00
34065;BME280;20339;49.754;20.158;2023-01-23T05:09:29;98103.61;;;-0.90;100.00
34065;BME280;20339;49.754;20.158;2023-01-23T05:12:06;98103.70;;;-0.89;100.00
34065;BME280;20339;49.754;20.158;2023-01-23T05:14:37;98108.02;;;-0.89;100.00
34065;BME280;20339;49.754;20.158;2023-01-23T05:17:08;98110.11;;;-0.87;100.00
34065;BME280;20339;49.754;20.158;2023-01-23T05:19:39;98109.61;;;-0.86;100.00
34065;BME280;20339;49.754;20.158;2023-01-23T05:22:10;98110.81;;;-0.86;100.00
34065;BME280;20339;49.754;20.158;2023-01-23T05:24:41;98107.17;;;-0.86;100.00
34065;BME280;20339;49.754;20.158;2023-01-23T05:27:13;98110.20;;;-0.84;100.00
34065;BME280;20339;49.754;20.158;2023-01-23T05:29:44;98110.88;;;-0.85;100.00
34065;BME280;20339;49.754;20.158;2023-01-23T05:32:15;98113.27;;;-0.84;100.00
34065;BME280;20339;49.754;20.158;2023-01-23T05:34:46;98116.36;;;-0.84;100.00
34065;BME280;20339;49.754;20.158;2023-01-23T05:37:20;98117.42;;;-0.84;100.00
34065;BME280;20339;49.754;20.158;2023-01-23T05:39:54;98117.43;;;-0.83;100.00
34065;BME280;20339;49.754;20.158;2023-01-23T05:42:25;98117.13;;;-0.81;100.00
34065;BME280;20339;49.754;20.158;2023-01-23T05:44:56;98122.39;;;-0.80;100.00
34065;BME280;20339;49.754;20.158;2023-01-23T05:47:27;98129.52;;;-0.79;100.00
34065;BME280;20339;49.754;20.158;2023-01-23T05:50:01;98129.41;;;-0.78;100.00
34065;BME280;20339;49.754;20.158;2023-01-23T05:52:32;98132.85;;;-0.76;100.00
34065;BME280;20339;49.754;20.158;2023-01-23T05:55:03;98134.30;;;-0.75;100.00
34065;BME280;20339;49.754;20.158;2023-01-23T05:57:35;98138.33;;;-0.74;100.00
34065;BME280;20339;49.754;20.158;2023-01-23T06:00:11;98144.48;;;-0.73;100.00
34065;BME280;20339;49.754;20.158;2023-01-23T06:02:43;98150.34;;;-0.73;100.00
34065;BME280;20339;49.754;20.158;2023-01-23T06:05:16;98152.55;;;-0.72;100.00
34065;BME280;20339;49.754;20.158;2023-01-23T06:07:47;98151.45;;;-0.70;100.00
34065;BME280;20339;49.754;20.158;2023-01-23T06:10:18;98150.86;;;-0.68;100.00
34065;BME280;20339;49.754;20.158;2023-01-23T06:12:50;98147.95;;;-0.65;100.00
34065;BME280;20339;49.754;20.158;2023-01-23T06:15:21;98154.08;;;-0.63;100.00
34065;BME280;20339;49.754;20.158;2023-01-23T06:17:52;98157.16;;;-0.61;100.00
34065;BME280;20339;49.754;20.158;2023-01-23T06:20:23;98156.48;;;-0.59;100.00
34065;BME280;20339;49.754;20.158;2023-01-23T06:22:54;98154.84;;;-0.58;100.00
34065;BME280;20339;49.754;20.158;2023-01-23T06:25:26;98155.48;;;-0.56;100.00
34065;BME280;20339;49.754;20.158;2023-01-23T06:27:57;98157.90;;;-0.53;100.00
34065;BME280;20339;49.754;20.158;2023-01-23T06:30:28;98164.03;;;-0.50;100.00
34065;BME280;20339;49.754;20.158;2023-01-23T06:32:59;98161.84;;;-0.49;100.00
34065;BME280;20339;49.754;20.158;2023-01-23T06:35:30;98167.27;;;-0.48;100.00
34065;BME280;20339;49.754;20.158;2023-01-23T06:38:01;98171.27;;;-0.47;100.00
34065;BME280;20339;49.754;20.158;2023-01-23T06:40:33;98170.41;;;-0.45;100.00
34065;BME280;20339;49.754;20.158;2023-01-23T06:43:07;98174.23;;;-0.42;100.00
34065;BME280;20339;49.754;20.158;2023-01-23T06:45:37;98180.17;;;-0.39;100.00
34065;BME280;20339;49.754;20.158;2023-01-23T06:48:08;98176.66;;;-0.36;100.00
34065;BME280;20339;49.754;20.158;2023-01-23T06:50:40;98179.91;;;-0.34;100.00
34065;BME280;20339;49.754;20.158;2023-01-23T06:53:13;98178.98;;;-0.32;100.00
34065;BME280;20339;49.754;20.158;2023-01-23T06:55:45;98183.83;;;-0.28;100.00
34065;BME280;20339;49.754;20.158;2023-01-23T06:58:16;98180.93;;;-0.26;100.00
34065;BME280;20339;49.754;20.158;2023-01-23T07:00:50;98182.70;;;-0.23;100.00
34065;BME280;20339;49.754;20.158;2023-01-23T07:03:21;98185.61;;;-0.21;100.00
34065;BME280;20339;49.754;20.158;2023-01-23T07:05:52;98190.06;;;-0.19;100.00
34065;BME280;20339;49.754;20.158;2023-01-23T07:08:22;98189.07;;;-0.16;100.00
34065;BME280;20339;49.754;20.158;2023-01-23T07:10:53;98192.02;;;-0.15;100.00
34065;BME280;20339;49.754;20.158;2023-01-23T07:13:24;98194.73;;;-0.13;100.00
34065;BME280;20339;49.754;20.158;2023-01-23T07:15:55;98197.78;;;-0.10;100.00
34065;BME280;20339;49.754;20.158;2023-01-23T07:18:26;98203.39;;;-0.08;100.00
34065;BME280;20339;49.754;20.158;2023-01-23T07:20:59;98201.20;;;-0.05;100.00
34065;BME280;20339;49.754;20.158;2023-01-23T07:23:30;98201.08;;;-0.01;100.00
34065;BME280;20339;49.754;20.158;2023-01-23T07:26:02;98201.13;;;0.03;100.00
34065;BME280;20339;49.754;20.158;2023-01-23T07:28:33;98202.83;;;0.07;100.00
34065;BME280;20339;49.754;20.158;2023-01-23T07:31:04;98201.53;;;0.10;100.00
34065;BME280;20339;49.754;20.158;2023-01-23T07:33:35;98207.60;;;0.13;100.00
34065;BME280;20339;49.754;20.158;2023-01-23T07:36:08;98208.60;;;0.17;100.00
34065;BME280;20339;49.754;20.158;2023-01-23T07:38:39;98207.77;;;0.20;100.00
34065;BME280;20339;49.754;20.158;2023-01-23T07:41:10;98214.14;;;0.22;100.00
34065;BME280;20339;49.754;20.158;2023-01-23T07:43:41;98214.83;;;0.22;100.00
34065;BME280;20339;49.754;20.158;2023-01-23T07:46:12;98216.80;;;0.18;100.00
34065;BME280;20339;49.754;20.158;2023-01-23T07:48:43;98220.29;;;0.15;100.00
34065;BME280;20339;49.754;20.158;2023-01-23T07:51:14;98221.91;;;0.15;100.00
34065;BME280;20339;49.754;20.158;2023-01-23T07:53:47;98226.23;;;0.15;100.00
34065;BME280;20339;49.754;20.158;2023-01-23T07:56:18;98223.75;;;0.19;100.00
34065;BME280;20339;49.754;20.158;2023-01-23T07:58:50;98224.03;;;0.23;100.00
34065;BME280;20339;49.754;20.158;2023-01-23T08:01:21;98221.86;;;0.29;100.00
34065;BME280;20339;49.754;20.158;2023-01-23T08:03:52;98220.06;;;0.34;100.00
34065;BME280;20339;49.754;20.158;2023-01-23T08:06:25;98223.39;;;0.38;100.00
34065;BME280;20339;49.754;20.158;2023-01-23T08:08:58;98227.80;;;0.38;100.00
34065;BME280;20339;49.754;20.158;2023-01-23T08:11:29;98229.25;;;0.39;100.00
34065;BME280;20339;49.754;20.158;2023-01-23T08:14:00;98233.73;;;0.42;100.00
34065;BME280;20339;49.754;20.158;2023-01-23T08:16:31;98233.52;;;0.52;100.00
34065;BME280;20339;49.754;20.158;2023-01-23T08:19:03;98233.94;;;0.61;100.00
34065;BME280;20339;49.754;20.158;2023-01-23T08:21:35;98234.05;;;0.68;100.00
34065;BME280;20339;49.754;20.158;2023-01-23T08:24:09;98236.55;;;0.73;100.00
34065;BME280;20339;49.754;20.158;2023-01-23T08:26:41;98239.00;;;0.71;100.00
34065;BME280;20339;49.754;20.158;2023-01-23T08:29:12;98240.02;;;0.65;100.00
34065;BME280;20339;49.754;20.158;2023-01-23T08:31:44;98241.60;;;0.60;100.00
34065;BME280;20339;49.754;20.158;2023-01-23T08:34:14;98245.63;;;0.58;100.00
34065;BME280;20339;49.754;20.158;2023-01-23T08:36:45;98244.21;;;0.63;100.00
34065;BME280;20339;49.754;20.158;2023-01-23T08:39:16;98243.83;;;0.67;100.00
34065;BME280;20339;49.754;20.158;2023-01-23T08:41:48;98241.95;;;0.70;100.00
34065;BME280;20339;49.754;20.158;2023-01-23T08:44:19;98243.70;;;0.73;100.00
34065;BME280;20339;49.754;20.158;2023-01-23T08:46:50;98244.70;;;0.74;100.00
34065;BME280;20339;49.754;20.158;2023-01-23T08:49:21;98250.06;;;0.76;100.00
34065;BME280;20339;49.754;20.158;2023-01-23T08:51:52;98250.45;;;0.73;100.00
34065;BME280;20339;49.754;20.158;2023-01-23T08:54:23;98254.56;;;0.72;100.00
34065;BME280;20339;49.754;20.158;2023-01-23T08:56:54;98255.83;;;0.70;100.00
34065;BME280;20339;49.754;20.158;2023-01-23T08:59:25;98255.49;;;0.68;100.00
34065;BME280;20339;49.754;20.158;2023-01-23T09:01:58;98258.60;;;0.67;100.00
34065;BME280;20339;49.754;20.158;2023-01-23T09:04:29;98251.48;;;0.65;100.00
34065;BME280;20339;49.754;20.158;2023-01-23T09:07:00;98259.52;;;0.70;100.00
34065;BME280;20339;49.754;20.158;2023-01-23T09:09:30;98264.64;;;0.67;100.00
34065;BME280;20339;49.754;20.158;2023-01-23T09:12:01;98271.21;;;0.62;100.00
34065;BME280;20339;49.754;20.158;2023-01-23T09:14:32;98270.20;;;0.61;100.00
34065;BME280;20339;49.754;20.158;2023-01-23T09:17:03;98264.54;;;0.64;100.00
34065;BME280;20339;49.754;20.158;2023-01-23T09:19:37;98264.21;;;0.67;100.00
34065;BME280;20339;49.754;20.158;2023-01-23T09:22:08;98265.55;;;0.67;100.00
34065;BME280;20339;49.754;20.158;2023-01-23T09:24:39;98260.98;;;0.77;100.00
34065;BME280;20339;49.754;20.158;2023-01-23T09:27:09;98264.52;;;0.83;100.00
34065;BME280;20339;49.754;20.158;2023-01-23T09:29:40;98268.10;;;0.86;100.00
34065;BME280;20339;49.754;20.158;2023-01-23T09:32:12;98267.94;;;0.82;100.00
34065;BME280;20339;49.754;20.158;2023-01-23T09:34:43;98267.72;;;0.78;100.00
34065;BME280;20339;49.754;20.158;2023-01-23T09:37:17;98273.55;;;0.76;100.00
34065;BME280;20339;49.754;20.158;2023-01-23T09:39:48;98269.80;;;0.71;100.00
34065;BME280;20339;49.754;20.158;2023-01-23T09:42:21;98267.75;;;0.69;100.00
34065;BME280;20339;49.754;20.158;2023-01-23T09:44:56;98267.86;;;0.66;100.00
34065;BME280;20339;49.754;20.158;2023-01-23T09:47:33;98269.08;;;0.64;100.00
34065;BME280;20339;49.754;20.158;2023-01-23T09:50:12;98266.55;;;0.65;100.00
34065;BME280;20339;49.754;20.158;2023-01-23T09:52:47;98265.62;;;0.66;100.00
34065;BME280;20339;49.754;20.158;2023-01-23T09:55:32;98260.89;;;0.70;100.00
34065;BME280;20339;49.754;20.158;2023-01-23T09:58:14;98256.61;;;0.70;100.00
34065;BME280;20339;49.754;20.158;2023-01-23T10:00:47;98257.58;;;0.68;100.00
34065;BME280;20339;49.754;20.158;2023-01-23T10:03:21;98256.69;;;0.65;100.00
34065;BME280;20339;49.754;20.158;2023-01-23T10:06:05;98256.34;;;0.68;100.00
34065;BME280;20339;49.754;20.158;2023-01-23T10:08:53;98251.44;;;0.70;100.00
34065;BME280;20339;49.754;20.158;2023-01-23T10:11:37;98255.61;;;0.70;100.00
34065;BME280;20339;49.754;20.158;2023-01-23T10:14:32;98249.43;;;0.74;100.00
34065;BME280;20339;49.754;20.158;2023-01-23T10:17:16;98249.25;;;0.81;100.00
34065;BME280;20339;49.754;20.158;2023-01-23T10:20:18;98245.95;;;0.78;100.00
34065;BME280;20339;49.754;20.158;2023-01-23T10:23:01;98247.61;;;0.76;100.00
34065;BME280;20339;49.754;20.158;2023-01-23T10:25:37;98245.86;;;0.80;100.00
34065;BME280;20339;49.754;20.158;2023-01-23T10:28:25;98246.91;;;0.90;100.00
34065;BME280;20339;49.754;20.158;2023-01-23T10:31:02;98244.58;;;0.98;100.00
34065;BME280;20339;49.754;20.158;2023-01-23T10:33:41;98244.10;;;1.02;100.00
34065;BME280;20339;49.754;20.158;2023-01-23T10:36:22;98243.58;;;1.05;100.00
34065;BME280;20339;49.754;20.158;2023-01-23T10:39:01;98243.95;;;1.09;100.00
34065;BME280;20339;49.754;20.158;2023-01-23T10:41:34;98243.08;;;1.12;100.00
34065;BME280;20339;49.754;20.158;2023-01-23T10:44:14;98240.21;;;1.11;100.00
34065;BME280;20339;49.754;20.158;2023-01-23T10:46:51;98241.34;;;1.09;100.00
34065;BME280;20339;49.754;20.158;2023-01-23T10:49:32;98240.63;;;1.03;100.00
34065;BME280;20339;49.754;20.158;2023-01-23T10:52:05;98237.06;;;0.95;100.00
34065;BME280;20339;49.754;20.158;2023-01-23T10:54:56;98233.73;;;0.89;100.00
34065;BME280;20339;49.754;20.158;2023-01-23T10:57:29;98228.48;;;0.88;100.00
34065;BME280;20339;49.754;20.158;2023-01-23T11:00:02;98225.86;;;0.93;100.00
34065;BME280;20339;49.754;20.158;2023-01-23T11:02:37;98227.99;;;1.00;100.00
34065;BME280;20339;49.754;20.158;2023-01-23T11:05:34;98222.81;;;1.06;100.00
34065;BME280;20339;49.754;20.158;2023-01-23T11:08:22;98217.96;;;1.10;100.00
34065;BME280;20339;49.754;20.158;2023-01-23T11:11:11;98214.97;;;1.05;100.00
34065;BME280;20339;49.754;20.158;2023-01-23T11:13:46;98209.50;;;1.08;100.00
34065;BME280;20339;49.754;20.158;2023-01-23T11:16:20;98209.27;;;1.15;100.00
34065;BME280;20339;49.754;20.158;2023-01-23T11:18:54;98208.81;;;1.21;100.00
34065;BME280;20339;49.754;20.158;2023-01-23T11:21:28;98207.19;;;1.20;100.00
34065;BME280;20339;49.754;20.158;2023-01-23T11:24:15;98208.52;;;1.22;100.00
34065;BME280;20339;49.754;20.158;2023-01-23T11:26:47;98207.60;;;1.28;100.00
34065;BME280;20339;49.754;20.158;2023-01-23T11:29:29;98199.48;;;1.31;100.00
34065;BME280;20339;49.754;20.158;2023-01-23T11:32:03;98197.98;;;1.35;100.00
34065;BME280;20339;49.754;20.158;2023-01-23T11:34:39;98196.26;;;1.40;100.00
34065;BME280;20339;49.754;20.158;2023-01-23T11:37:16;98195.38;;;1.46;100.00
34065;BME280;20339;49.754;20.158;2023-01-23T11:39:52;98198.38;;;1.52;100.00
34065;BME280;20339;49.754;20.158;2023-01-23T11:42:27;98197.85;;;1.56;100.00
34065;BME280;20339;49.754;20.158;2023-01-23T11:44:59;98194.55;;;1.59;100.00
34065;BME280;20339;49.754;20.158;2023-01-23T11:50:36;98192.50;;;1.67;100.00
34065;BME280;20339;49.754;20.158;2023-01-23T11:53:20;98192.00;;;1.70;100.00
34065;BME280;20339;49.754;20.158;2023-01-23T11:56:10;98189.43;;;1.71;100.00
34065;BME280;20339;49.754;20.158;2023-01-23T11:59:05;98188.93;;;1.68;100.00
34065;BME280;20339;49.754;20.158;2023-01-23T12:01:47;98189.34;;;1.62;100.00
34065;BME280;20339;49.754;20.158;2023-01-23T12:04:50;98189.63;;;1.49;100.00
34065;BME280;20339;49.754;20.158;2023-01-23T12:07:25;98188.42;;;1.40;100.00
34065;BME280;20339;49.754;20.158;2023-01-23T12:10:07;98190.31;;;1.41;100.00
34065;BME280;20339;49.754;20.158;2023-01-23T12:12:52;98192.91;;;1.45;100.00
34065;BME280;20339;49.754;20.158;2023-01-23T12:15:34;98200.91;;;1.48;100.00
34065;BME280;20339;49.754;20.158;2023-01-23T12:18:10;98195.77;;;1.49;100.00
34065;BME280;20339;49.754;20.158;2023-01-23T12:20:53;98196.79;;;1.46;100.00
34065;BME280;20339;49.754;20.158;2023-01-23T12:23:45;98193.20;;;1.45;100.00
34065;BME280;20339;49.754;20.158;2023-01-23T12:26:20;98192.33;;;1.50;100.00
34065;BME280;20339;49.754;20.158;2023-01-23T12:28:59;98186.53;;;1.53;100.00
34065;BME280;20339;49.754;20.158;2023-01-23T12:31:49;98189.68;;;1.52;100.00
34065;BME280;20339;49.754;20.158;2023-01-23T12:34:49;98191.19;;;1.49;100.00
34065;BME280;20339;49.754;20.158;2023-01-23T12:37:32;98194.14;;;1.43;100.00
34065;BME280;20339;49.754;20.158;2023-01-23T12:40:12;98193.73;;;1.35;100.00
34065;BME280;20339;49.754;20.158;2023-01-23T12:42:52;98187.63;;;1.31;100.00
34065;BME280;20339;49.754;20.158;2023-01-23T12:45:26;98190.32;;;1.32;100.00
34065;BME280;20339;49.754;20.158;2023-01-23T12:48:05;98193.79;;;1.36;100.00
34065;BME280;20339;49.754;20.158;2023-01-23T12:50:43;98195.04;;;1.37;100.00
34065;BME280;20339;49.754;20.158;2023-01-23T12:53:16;98199.59;;;1.38;100.00
34065;BME280;20339;49.754;20.158;2023-01-23T12:55:56;98196.86;;;1.34;100.00
34065;BME280;20339;49.754;20.158;2023-01-23T12:58:31;98196.38;;;1.31;100.00
34065;BME280;20339;49.754;20.158;2023-01-23T13:01:13;98196.14;;;1.24;100.00
34065;BME280;20339;49.754;20.158;2023-01-23T13:03:55;98201.03;;;1.13;100.00
34065;BME280;20339;49.754;20.158;2023-01-23T13:09:33;98207.92;;;0.99;100.00
34065;BME280;20339;49.754;20.158;2023-01-23T13:12:14;98205.86;;;0.96;100.00
34065;BME280;20339;49.754;20.158;2023-01-23T13:14:52;98207.14;;;0.84;100.00
34065;BME280;20339;49.754;20.158;2023-01-23T13:17:40;98206.39;;;0.75;100.00
34065;BME280;20339;49.754;20.158;2023-01-23T13:20:22;98207.39;;;0.72;100.00
34065;BME280;20339;49.754;20.158;2023-01-23T13:23:27;98211.08;;;0.72;100.00
34065;BME280;20339;49.754;20.158;2023-01-23T13:26:25;98211.30;;;0.70;100.00
34065;BME280;20339;49.754;20.158;2023-01-23T13:29:03;98210.97;;;0.73;100.00